Time;durP1;ratioP1;P1;durP2;ratioP2;P2;SDS_P1;SDS_P2;PMS_P1;PMS_P2;Temp;Humidity;BMP_temperature;BMP_pressure;BME280_temperature;BME280_humidity;BME280_pressure;Samples;Min_cycle;Max_cycle;Signal;HPM_P1;HPM_P2
2023/04/10 08:44:04;;;;;;;6.03;4.68;;;14.50;61.10;;;;;;5061396;27;20460;-86
2023/04/10 08:46:30;;;;;;;6.13;4.72;;;14.40;61.10;;;;;;5014782;28;310772;-88
2023/04/10 08:49:02;;;;;;;5.30;4.40;;;14.40;61.50;;;;;;5035837;28;20143;-87
2023/04/10 08:51:31;;;;;;;6.75;4.72;;;14.40;61.40;;;;;;5064378;28;20112;-88
2023/04/10 08:54:07;;;;;;;5.40;4.45;;;14.40;63.10;;;;;;5064253;28;20066;-88
2023/04/10 08:56:34;;;;;;;8.00;4.53;;;14.50;60.70;;;;;;5063701;28;20039;-87
2023/04/10 08:59:02;;;;;;;6.03;4.70;;;14.70;59.10;;;;;;5065072;28;20471;-87
2023/04/10 09:01:27;;;;;;;6.50;4.10;;;14.50;59.50;;;;;;5065000;28;20059;-88
2023/04/10 09:03:53;;;;;;;5.53;4.85;;;14.40;60.20;;;;;;5050012;28;20106;-93
2023/04/10 09:06:19;;;;;;;4.28;3.58;;;14.70;64.20;;;;;;5047021;28;20045;-88
2023/04/10 09:08:44;;;;;;;4.88;3.80;;;15.20;61.60;;;;;;5065115;28;20021;-90
2023/04/10 09:11:12;;;;;;;5.68;4.10;;;15.00;59.90;;;;;;5059615;28;20489;-89
2023/04/10 09:13:45;;;;;;;4.20;3.80;;;14.80;59.10;;;;;;5051482;28;20029;-94
2023/04/10 09:16:11;;;;;;;5.03;3.78;;;15.70;62.90;;;;;;5062256;28;20118;-93
2023/04/10 09:18:47;;;;;;;6.10;4.50;;;14.90;60.40;;;;;;5048959;28;20036;-93
2023/04/10 09:21:15;;;;;;;10.10;4.20;;;15.00;60.70;;;;;;5065316;28;20033;-92
2023/04/10 09:23:42;;;;;;;4.97;3.70;;;14.70;59.70;;;;;;5067430;28;20040;-91
2023/04/10 09:26:32;;;;;;;6.05;3.72;;;14.70;59.20;;;;;;5067897;28;20499;-90
2023/04/10 09:29:02;;;;;;;6.38;3.88;;;14.80;58.80;;;;;;5071258;28;20024;-90
2023/04/10 09:31:29;;;;;;;4.95;4.15;;;15.90;59.60;;;;;;5075265;28;20467;-91
2023/04/10 09:34:18;;;;;;;5.00;4.18;;;15.80;58.20;;;;;;5082707;27;20410;-91
2023/04/10 09:37:04;;;;;;;13.23;11.52;;;15.60;57.60;;;;;;5064153;28;20059;-90
2023/04/10 09:39:35;;;;;;;27.55;19.30;;;15.60;57.50;;;;;;5065891;28;20480;-90
2023/04/10 09:42:01;;;;;;;30.38;21.20;;;16.10;58.70;;;;;;5063372;28;20108;-90
2023/04/10 09:44:34;;;;;;;6.22;4.70;;;16.10;57.50;;;;;;5045261;28;20115;-90
2023/04/10 09:47:15;;;;;;;3.65;3.33;;;16.80;57.80;;;;;;5062929;28;20032;-92
2023/04/10 09:49:48;;;;;;;4.88;3.58;;;16.50;59.40;;;;;;5050668;28;20069;-90
2023/04/10 09:52:22;;;;;;;6.13;3.40;;;16.50;57.50;;;;;;5024448;28;20065;-91
2023/04/10 09:54:47;;;;;;;4.22;3.60;;;16.60;54.90;;;;;;5012868;28;20381;-88
2023/04/10 09:57:17;;;;;;;4.80;3.28;;;16.40;56.80;;;;;;5013596;28;20029;-90
2023/04/10 09:59:45;;;;;;;6.78;3.60;;;16.80;56.00;;;;;;5017924;28;20042;-89
2023/04/10 10:02:12;;;;;;;4.82;3.72;;;17.10;56.40;;;;;;5010917;28;20037;-91
2023/04/10 10:04:38;;;;;;;5.28;4.07;;;17.20;57.60;;;;;;5026707;28;20065;-90
2023/04/10 10:07:07;;;;;;;3.30;3.00;;;17.70;55.70;;;;;;4995152;28;20500;-90
2023/04/10 10:09:32;;;;;;;4.03;3.30;;;18.60;52.90;;;;;;5043042;23;20037;-87
2023/04/10 10:11:58;;;;;;;4.30;3.22;;;18.30;54.80;;;;;;4996628;28;20030;-88
2023/04/10 10:14:26;;;;;;;4.65;3.63;;;17.60;52.30;;;;;;4982631;28;20117;-87
2023/04/10 10:16:52;;;;;;;5.75;3.25;;;17.50;57.80;;;;;;5002264;28;20018;-87
2023/04/10 10:19:56;;;;;;;6.65;3.55;;;18.40;52.80;;;;;;5007989;28;20030;-88
2023/04/10 10:22:22;;;;;;;4.00;3.47;;;17.60;54.70;;;;;;5017416;28;20487;-86
2023/04/10 10:24:47;;;;;;;4.00;3.53;;;17.80;53.40;;;;;;5006543;28;20040;-86
2023/04/10 10:27:13;;;;;;;3.38;3.08;;;17.50;50.60;;;;;;4995750;28;20641;-86
2023/04/10 10:29:39;;;;;;;5.38;3.13;;;17.80;54.60;;;;;;4991578;28;20045;-87
2023/04/10 10:32:26;;;;;;;7.28;3.58;;;18.10;54.30;;;;;;4996067;28;20145;-87
2023/04/10 10:34:52;;;;;;;4.47;3.00;;;17.90;54.50;;;;;;5005416;28;20662;-87
2023/04/10 10:37:19;;;;;;;3.53;3.00;;;18.20;52.60;;;;;;5021800;28;20049;-86
2023/04/10 10:40:06;;;;;;;31.42;24.55;;;18.50;50.00;;;;;;4998127;28;20385;-85
2023/04/10 10:42:55;;;;;;;19.27;15.15;;;18.30;52.20;;;;;;5018746;28;20029;-85
2023/04/10 10:45:51;;;;;;;3.90;3.20;;;18.80;55.00;;;;;;5017601;28;20033;-85
2023/04/10 10:48:19;;;;;;;3.58;3.20;;;18.50;51.60;;;;;;5016245;28;20495;-85
2023/04/10 10:51:04;;;;;;;3.60;3.25;;;18.30;55.30;;;;;;5018675;28;20058;-85
2023/04/10 10:53:34;;;;;;;3.58;2.92;;;18.00;50.50;;;;;;5034485;28;20030;-86
2023/04/10 10:56:18;;;;;;;3.28;2.97;;;18.10;52.60;;;;;;5016891;28;20104;-85
2023/04/10 10:58:47;;;;;;;4.53;3.28;;;19.40;52.70;;;;;;5000291;28;20026;-85
2023/04/10 11:01:18;;;;;;;4.28;3.15;;;19.40;54.20;;;;;;5012372;28;20029;-85
2023/04/10 11:03:47;;;;;;;3.28;2.97;;;18.50;51.90;;;;;;5010902;28;20036;-85
2023/04/10 11:06:49;;;;;;;7.93;3.50;;;17.70;49.80;;;;;;5004663;28;20029;-85
2023/04/10 11:09:52;;;;;;;4.80;3.65;;;18.10;49.90;;;;;;5013827;28;20028;-85
2023/04/10 11:12:46;;;;;;;3.30;3.00;;;17.60;53.90;;;;;;5016641;28;20025;-84
2023/04/10 11:15:12;;;;;;;5.82;4.13;;;17.30;50.20;;;;;;5018823;28;20041;-84
2023/04/10 11:17:56;;;;;;;3.90;3.47;;;18.10;51.00;;;;;;5021064;28;20026;-85
2023/04/10 11:20:48;;;;;;;5.25;4.00;;;18.30;51.60;;;;;;5025670;28;20037;-87
2023/04/10 11:23:19;;;;;;;29.08;18.35;;;17.70;48.10;;;;;;5026178;28;20037;-85
2023/04/10 11:25:50;;;;;;;5.35;4.57;;;18.20;49.60;;;;;;5024733;28;20155;-85
2023/04/10 11:28:36;;;;;;;5.90;3.88;;;18.80;52.30;;;;;;5012147;28;20029;-86
2023/04/10 11:31:22;;;;;;;3.55;3.17;;;19.30;50.00;;;;;;5008417;28;20029;-85
2023/04/10 11:33:48;;;;;;;4.22;3.53;;;19.10;50.40;;;;;;5011599;28;20030;-84
2023/04/10 11:36:16;;;;;;;6.20;3.05;;;20.10;48.70;;;;;;5007580;28;20037;-85
2023/04/10 11:39:12;;;;;;;;;;;;;;;;;;;;;
2023/04/10 11:41:56;;;;;;;3.72;3.03;;;19.40;48.40;;;;;;4998172;28;20044;-85
2023/04/10 11:44:25;;;;;;;3.35;2.97;;;19.40;48.00;;;;;;5019569;28;20034;-85
2023/04/10 11:46:51;;;;;;;5.32;3.15;;;19.90;50.00;;;;;;5003655;28;20103;-84
2023/04/10 11:49:23;;;;;;;3.38;3.03;;;20.10;48.00;;;;;;5006308;28;20080;-85
2023/04/10 11:51:56;;;;;;;4.10;2.80;;;20.10;51.30;;;;;;5006923;28;20022;-85
2023/04/10 11:54:23;;;;;;;3.45;3.10;;;19.10;47.90;;;;;;5001883;28;20110;-85
2023/04/10 11:56:56;;;;;;;4.55;3.60;;;18.10;48.90;;;;;;5005156;28;20026;-85
2023/04/10 11:59:22;;;;;;;4.03;3.08;;;18.80;47.40;;;;;;5002486;28;20042;-85
2023/04/10 12:01:53;;;;;;;4.55;3.33;;;18.80;48.90;;;;;;4997567;28;20491;-85
2023/04/10 12:04:21;;;;;;;3.90;3.22;;;18.90;52.00;;;;;;5000446;28;20030;-88
2023/04/10 12:06:47;;;;;;;3.70;3.33;;;19.50;47.80;;;;;;5000778;28;20022;-84
2023/04/10 12:09:17;;;;;;;2.92;2.63;;;20.10;52.60;;;;;;4999169;28;20489;-85
2023/04/10 12:11:53;;;;;;;2.92;2.63;;;19.20;52.20;;;;;;5007377;28;20603;-85
2023/04/10 12:14:20;;;;;;;2.88;2.67;;;19.50;48.90;;;;;;5003216;28;20030;-85
2023/04/10 12:16:46;;;;;;;3.35;3.05;;;20.10;50.70;;;;;;4994873;28;20030;-85
2023/04/10 12:19:12;;;;;;;3.60;3.03;;;20.60;48.60;;;;;;4991391;28;20026;-84
2023/04/10 12:21:43;;;;;;;3.15;2.75;;;20.40;48.00;;;;;;4982971;28;20050;-85
2023/04/10 12:24:09;;;;;;;45.50;37.30;;;21.20;49.00;;;;;;4998146;28;20117;-84
2023/04/10 12:26:35;;;;;;;74.28;58.95;;;20.70;45.60;;;;;;5002217;28;20144;-84
2023/04/10 12:29:01;;;;;;;80.82;62.10;;;20.30;45.60;;;;;;5020003;28;20030;-84
2023/04/10 12:31:33;;;;;;;49.38;36.78;;;20.80;47.40;;;;;;5002526;28;20030;-84
2023/04/10 12:34:04;;;;;;;5.28;3.45;;;19.80;45.20;;;;;;4993517;28;20027;-83
2023/04/10 12:36:32;;;;;;;2.60;2.40;;;20.50;47.90;;;;;;4975646;28;20568;-84
2023/04/10 12:39:01;;;;;;;3.20;2.70;;;20.30;47.40;;;;;;5007997;28;20417;-84
2023/04/10 12:41:31;;;;;;;3.03;2.72;;;20.00;49.10;;;;;;5008805;28;20048;-84
2023/04/10 12:44:12;;;;;;;2.40;2.20;;;19.90;45.90;;;;;;5007534;28;20042;-84
2023/04/10 12:46:39;;;;;;;2.92;2.63;;;20.00;46.00;;;;;;5011670;28;20100;-84
2023/04/10 12:49:22;;;;;;;2.58;2.38;;;19.70;46.70;;;;;;5004271;28;20545;-84
2023/04/10 12:51:49;;;;;;;4.07;2.83;;;20.10;47.10;;;;;;5019592;28;20022;-83
2023/04/10 12:54:32;;;;;;;3.13;2.83;;;20.10;45.20;;;;;;5012466;28;20113;-85
2023/04/10 12:56:57;;;;;;;3.85;2.80;;;19.80;46.40;;;;;;5003751;28;20026;-85
2023/04/10 12:59:23;;;;;;;2.13;2.03;;;19.60;46.20;;;;;;5009394;28;20080;-85
2023/04/10 13:01:49;;;;;;;4.15;2.55;;;19.50;45.90;;;;;;5001138;28;20088;-84
2023/04/10 13:04:15;;;;;;;3.78;2.80;;;19.40;48.70;;;;;;5013394;28;20300;-85
2023/04/10 13:06:42;;;;;;;2.60;2.40;;;19.20;46.70;;;;;;5009425;28;20439;-84
2023/04/10 13:09:08;;;;;;;133.63;94.85;;;19.00;46.70;;;;;;5005879;28;20053;-84
2023/04/10 13:11:34;;;;;;;57.55;40.08;;;18.90;46.90;;;;;;4996139;28;20045;-84
2023/04/10 13:13:59;;;;;;;29.10;22.00;;;18.80;47.40;;;;;;4998924;28;20045;-84
2023/04/10 13:16:25;;;;;;;4.70;3.90;;;19.20;47.70;;;;;;5007990;28;20489;-84
2023/04/10 13:18:50;;;;;;;3.08;2.60;;;19.10;50.10;;;;;;5011826;28;20057;-84
2023/04/10 13:21:17;;;;;;;2.35;2.13;;;19.00;52.20;;;;;;5002843;28;20397;-85
2023/04/10 13:23:43;;;;;;;2.92;2.47;;;20.30;48.40;;;;;;5003064;28;20072;-84
2023/04/10 13:26:08;;;;;;;2.92;2.63;;;19.90;49.30;;;;;;5003651;28;20081;-84
2023/04/10 13:28:34;;;;;;;2.72;2.20;;;18.80;48.50;;;;;;4999758;28;20437;-86
2023/04/10 13:30:59;;;;;;;2.20;2.00;;;19.00;46.30;;;;;;5001973;28;20022;-86
2023/04/10 13:33:25;;;;;;;1.90;1.80;;;18.70;46.90;;;;;;5019044;28;20042;-87
2023/04/10 13:35:51;;;;;;;2.67;2.47;;;18.80;47.40;;;;;;5003334;28;20026;-86
2023/04/10 13:38:16;;;;;;;2.90;2.35;;;19.00;47.40;;;;;;5018286;28;20027;-86
2023/04/10 13:40:48;;;;;;;3.20;2.63;;;20.00;49.40;;;;;;5016728;28;20466;-86
2023/04/10 13:43:22;;;;;;;2.67;2.20;;;19.30;50.60;;;;;;5003872;28;20029;-86
2023/04/10 13:45:48;;;;;;;2.47;2.28;;;19.40;49.70;;;;;;5020044;28;20057;-85
2023/04/10 13:48:16;;;;;;;2.53;2.33;;;17.70;49.50;;;;;;5019680;28;20061;-86
2023/04/10 13:50:45;;;;;;;20.25;15.52;;;18.50;48.90;;;;;;5008734;28;20046;-86
2023/04/10 13:53:16;;;;;;;9.25;7.05;;;18.60;48.40;;;;;;5022551;28;20038;-86
2023/04/10 13:55:46;;;;;;;39.78;24.50;;;19.20;49.60;;;;;;5007178;28;20022;-86
2023/04/10 13:58:14;;;;;;;9.40;8.05;;;18.50;51.10;;;;;;4999427;28;20046;-85
2023/04/10 14:00:43;;;;;;;3.38;2.83;;;19.40;48.20;;;;;;5010388;28;20049;-86
2023/04/10 14:03:11;;;;;;;4.03;2.50;;;18.10;48.50;;;;;;5018226;28;20026;-86
2023/04/10 14:05:39;;;;;;;3.22;2.30;;;18.10;48.00;;;;;;5020878;28;20033;-86
2023/04/10 14:08:05;;;;;;;2.83;2.22;;;18.10;50.10;;;;;;5002063;28;20030;-86
2023/04/10 14:10:30;;;;;;;2.22;2.03;;;18.10;50.70;;;;;;5027072;28;20064;-85
2023/04/10 14:12:59;;;;;;;3.38;2.33;;;18.20;50.80;;;;;;5011370;28;20053;-86
2023/04/10 14:15:25;;;;;;;2.75;2.30;;;18.10;48.80;;;;;;4999925;28;20105;-86
2023/04/10 14:17:53;;;;;;;3.20;2.47;;;18.30;49.80;;;;;;5008690;28;20040;-86
2023/04/10 14:20:19;;;;;;;5.50;2.38;;;17.80;49.10;;;;;;5008547;28;20026;-86
2023/04/10 14:22:46;;;;;;;2.67;2.22;;;19.10;50.60;;;;;;5011911;28;20041;-86
2023/04/10 14:25:14;;;;;;;2.83;2.35;;;18.20;54.10;;;;;;5003765;28;20110;-86
2023/04/10 14:27:40;;;;;;;3.42;2.53;;;18.00;50.80;;;;;;5005559;28;20108;-85
2023/04/10 14:30:09;;;;;;;2.70;2.08;;;17.80;50.40;;;;;;5004721;28;20038;-85
2023/04/10 14:32:37;;;;;;;2.55;2.17;;;18.10;49.30;;;;;;5008023;28;20029;-85
2023/04/10 14:35:03;;;;;;;2.42;2.13;;;18.00;50.10;;;;;;5006875;28;20034;-85
2023/04/10 14:37:28;;;;;;;3.33;2.45;;;18.00;49.50;;;;;;5006648;28;20029;-86
2023/04/10 14:39:54;;;;;;;4.63;2.50;;;19.20;51.40;;;;;;5011789;28;20030;-86
2023/04/10 14:42:22;;;;;;;3.28;2.30;;;19.20;50.30;;;;;;5021674;28;20492;-86
2023/04/10 14:44:48;;;;;;;2.30;2.10;;;19.50;48.60;;;;;;5008670;28;20027;-86
2023/04/10 14:47:13;;;;;;;3.08;2.17;;;20.60;50.30;;;;;;5008545;28;20435;-85
2023/04/10 14:49:42;;;;;;;3.63;2.70;;;21.50;48.10;;;;;;5009653;28;20444;-86
2023/04/10 14:52:08;;;;;;;2.70;2.50;;;21.00;46.70;;;;;;5009515;28;20031;-85
2023/04/10 14:54:33;;;;;;;2.70;2.42;;;21.50;50.60;;;;;;5006459;28;20040;-86
2023/04/10 14:57:00;;;;;;;5.85;2.40;;;19.90;48.30;;;;;;5027404;28;20113;-86
2023/04/10 14:59:29;;;;;;;3.22;2.38;;;19.90;46.30;;;;;;5015345;28;20104;-86
2023/04/10 15:01:54;;;;;;;2.72;2.28;;;19.80;46.80;;;;;;5010155;28;20079;-86
2023/04/10 15:04:20;;;;;;;2.50;2.30;;;19.80;50.20;;;;;;5006347;28;20050;-86
2023/04/10 15:06:45;;;;;;;2.47;1.92;;;20.10;48.40;;;;;;5009663;28;20029;-85
2023/04/10 15:09:11;;;;;;;2.25;1.83;;;19.60;47.50;;;;;;5005889;28;20040;-85
2023/04/10 15:11:36;;;;;;;38.40;29.33;;;18.50;46.50;;;;;;5000498;28;20062;-86
2023/04/10 15:14:02;;;;;;;109.93;84.70;;;18.70;47.80;;;;;;5004381;28;20036;-86
2023/04/10 15:16:29;;;;;;;5.25;3.70;;;19.40;47.90;;;;;;5015205;28;20084;-86
2023/04/10 15:18:54;;;;;;;4.15;2.40;;;18.40;47.70;;;;;;5006058;28;20042;-86
2023/04/10 15:21:20;;;;;;;3.50;2.50;;;18.50;48.20;;;;;;4998803;28;20030;-85
2023/04/10 15:23:45;;;;;;;2.80;2.30;;;18.30;48.50;;;;;;5010958;28;20025;-86
2023/04/10 15:26:14;;;;;;;3.58;2.03;;;19.40;48.70;;;;;;5004550;28;20073;-86
2023/04/10 15:28:41;;;;;;;3.78;1.90;;;17.40;49.40;;;;;;5009763;28;20284;-86
2023/04/10 15:31:07;;;;;;;2.10;1.90;;;18.10;49.90;;;;;;5006027;28;20061;-85
2023/04/10 15:33:35;;;;;;;6.22;2.03;;;18.10;48.90;;;;;;5009385;28;20289;-86
2023/04/10 15:36:01;;;;;;;2.22;1.80;;;18.40;49.50;;;;;;5008869;28;20058;-85
2023/04/10 15:38:27;;;;;;;4.05;2.00;;;18.80;49.60;;;;;;5006866;28;20054;-86
2023/04/10 15:40:53;;;;;;;2.63;2.00;;;18.10;49.30;;;;;;5003037;28;20444;-86
2023/04/10 15:43:19;;;;;;;2.15;1.95;;;18.10;50.00;;;;;;5018045;28;20022;-86
2023/04/10 15:45:45;;;;;;;4.05;2.10;;;18.10;49.60;;;;;;5009738;28;20022;-86
2023/04/10 15:48:11;;;;;;;1.98;1.80;;;18.00;49.70;;;;;;5008692;28;20032;-86
2023/04/10 15:50:36;;;;;;;2.97;2.05;;;17.90;50.10;;;;;;5003160;28;20025;-85
2023/04/10 15:53:04;;;;;;;2.40;1.65;;;18.90;51.70;;;;;;5009289;28;20112;-86
2023/04/10 15:55:30;;;;;;;7.05;2.15;;;18.70;51.80;;;;;;5010658;28;20034;-86
2023/04/10 15:57:55;;;;;;;2.15;1.92;;;17.70;51.80;;;;;;5009155;28;20044;-86
2023/04/10 16:00:21;;;;;;;2.75;2.40;;;17.70;52.10;;;;;;5007412;28;21328;-86
2023/04/10 16:02:46;;;;;;;2.85;1.98;;;17.60;53.00;;;;;;5006797;28;20112;-85
2023/04/10 16:05:12;;;;;;;2.72;2.05;;;18.60;52.70;;;;;;4989326;28;20030;-86
2023/04/10 16:07:40;;;;;;;6.55;1.95;;;17.90;53.00;;;;;;5004888;28;20029;-86
2023/04/10 16:10:08;;;;;;;4.50;2.40;;;18.20;52.80;;;;;;5006306;28;20452;-86
2023/04/10 16:12:34;;;;;;;3.17;2.45;;;17.30;53.30;;;;;;5015207;28;20024;-86
2023/04/10 16:14:59;;;;;;;3.13;2.42;;;17.20;54.90;;;;;;5005153;28;20034;-85
2023/04/10 16:17:25;;;;;;;5.03;2.55;;;17.10;55.10;;;;;;4995131;28;20687;-86
2023/04/10 16:19:50;;;;;;;3.88;2.65;;;17.10;53.90;;;;;;5007270;28;20109;-86
2023/04/10 16:22:16;;;;;;;3.42;2.60;;;16.80;54.90;;;;;;5005227;28;20025;-86
2023/04/10 16:24:44;;;;;;;2.40;2.20;;;17.60;55.00;;;;;;5008523;28;20105;-86
2023/04/10 16:27:10;;;;;;;3.13;2.63;;;17.30;55.90;;;;;;5003977;28;20100;-86
2023/04/10 16:29:35;;;;;;;2.97;2.28;;;16.90;55.00;;;;;;5005606;28;20552;-86
2023/04/10 16:32:01;;;;;;;4.30;2.90;;;16.80;55.40;;;;;;5007281;28;20080;-86
2023/04/10 16:34:27;;;;;;;2.85;2.30;;;16.70;56.60;;;;;;5006735;28;20018;-86
2023/04/10 16:36:55;;;;;;;3.42;2.55;;;16.60;56.40;;;;;;5008013;28;20046;-85
2023/04/10 16:39:21;;;;;;;5.93;2.85;;;16.50;59.30;;;;;;5006751;28;20480;-85
2023/04/10 16:41:46;;;;;;;3.53;2.28;;;16.20;60.70;;;;;;5008246;28;20064;-86
2023/04/10 16:44:15;;;;;;;3.58;2.42;;;15.70;65.90;;;;;;5008966;28;20025;-86
2023/04/10 16:46:40;;;;;;;4.50;2.95;;;16.10;71.40;;;;;;5007548;28;20392;-85
2023/04/10 16:49:06;;;;;;;8.07;2.88;;;14.00;75.20;;;;;;5024901;28;20029;-85
2023/04/10 16:51:35;;;;;;;5.65;2.50;;;15.10;84.00;;;;;;5028962;28;20060;-85
2023/04/10 16:54:12;;;;;;;9.90;3.05;;;13.40;92.00;;;;;;5016405;28;20109;-86
2023/04/10 16:56:40;;;;;;;3.85;2.70;;;13.40;99.90;;;;;;5023130;28;20041;-86
2023/04/10 16:59:06;;;;;;;6.10;3.20;;;13.50;99.90;;;;;;5011479;28;20038;-86
2023/04/10 17:01:38;;;;;;;10.15;5.40;;;12.90;99.90;;;;;;5009821;28;20048;-85
2023/04/10 17:04:04;;;;;;;10.52;7.45;;;12.90;99.90;;;;;;5009112;28;20034;-85
2023/04/10 17:06:30;;;;;;;34.75;19.85;;;13.30;99.90;;;;;;5016874;28;20479;-86
2023/04/10 17:08:56;;;;;;;27.10;17.17;;;13.20;99.90;;;;;;5016619;28;20029;-86
2023/04/10 17:11:24;;;;;;;76.68;49.90;;;13.60;99.90;;;;;;5014661;28;20243;-85
2023/04/10 17:13:50;;;;;;;5.55;3.33;;;13.30;99.90;;;;;;5011573;28;20091;-86
2023/04/10 17:16:16;;;;;;;5.05;3.08;;;13.20;99.90;;;;;;5000515;28;20113;-86
2023/04/10 17:18:42;;;;;;;6.72;3.47;;;12.90;99.90;;;;;;5008960;28;20496;-86
2023/04/10 17:21:13;;;;;;;3.88;2.92;;;13.90;99.90;;;;;;5012009;28;20535;-85
2023/04/10 17:23:39;;;;;;;7.00;3.40;;;13.60;99.90;;;;;;5008383;28;20240;-85
2023/04/10 17:26:05;;;;;;;4.72;3.15;;;13.30;99.90;;;;;;5001552;28;20100;-85
2023/04/10 17:28:32;;;;;;;6.07;3.42;;;13.00;99.80;;;;;;5013044;28;20037;-85
2023/04/10 17:30:58;;;;;;;4.57;2.72;;;13.00;99.90;;;;;;5021907;28;20087;-85
2023/04/10 17:33:23;;;;;;;3.97;2.80;;;12.00;99.90;;;;;;5022083;28;20467;-86
2023/04/10 17:35:55;;;;;;;4.45;2.90;;;12.90;99.90;;;;;;5028488;28;20037;-85
2023/04/10 17:38:26;;;;;;;4.90;3.00;;;14.20;99.90;;;;;;5027019;28;20049;-85
2023/04/10 17:40:52;;;;;;;5.60;3.25;;;12.90;99.40;;;;;;5025692;28;20022;-85
2023/04/10 17:43:17;;;;;;;5.63;3.20;;;12.80;98.20;;;;;;4998950;28;20095;-85
2023/04/10 17:45:43;;;;;;;4.60;2.92;;;13.70;99.90;;;;;;5021175;28;20040;-85
2023/04/10 17:48:09;;;;;;;6.03;3.47;;;13.00;99.70;;;;;;5010843;28;20014;-85
2023/04/10 17:50:34;;;;;;;3.85;3.22;;;13.00;98.30;;;;;;5013426;28;20018;-85
2023/04/10 17:53:00;;;;;;;4.50;3.10;;;13.00;99.90;;;;;;5014530;28;20030;-86
2023/04/10 17:55:26;;;;;;;4.22;3.10;;;13.70;98.40;;;;;;5017249;28;20065;-85
2023/04/10 17:57:52;;;;;;;5.30;3.25;;;12.80;99.90;;;;;;5010593;28;20022;-86
2023/04/10 18:00:19;;;;;;;5.88;4.18;;;12.70;99.90;;;;;;5011981;28;20100;-86
2023/04/10 18:02:56;;;;;;;20.95;15.85;;;12.30;99.90;;;;;;5004700;28;20483;-86
2023/04/10 18:05:48;;;;;;;13.07;7.25;;;12.30;99.90;;;;;;5006206;28;20021;-86
2023/04/10 18:08:17;;;;;;;11.77;8.77;;;12.50;99.90;;;;;;5006186;28;20050;-87
2023/04/10 18:10:54;;;;;;;5.15;3.70;;;11.90;99.90;;;;;;5003565;28;20563;-86
2023/04/10 18:13:27;;;;;;;6.00;4.65;;;12.00;99.90;;;;;;5008213;28;20060;-86
2023/04/10 18:16:16;;;;;;;;;;;;;;;;;;;;;
2023/04/10 18:18:51;;;;;;;5.50;4.15;;;11.70;99.90;;;;;;5003587;28;20057;-85
2023/04/10 18:21:17;;;;;;;4.88;3.70;;;11.70;99.90;;;;;;5019143;28;20038;-85
2023/04/10 18:27:29;;;;;;;4.82;3.70;;;11.70;99.90;;;;;;4911714;29;20040;-85
2023/04/10 18:29:56;;;;;;;8.85;3.97;;;11.60;99.90;;;;;;4913955;29;20044;-86
2023/04/10 18:32:37;;;;;;;;;;;;;;;;;;;;;
2023/04/10 18:35:04;;;;;;;6.80;4.10;;;12.40;99.90;;;;;;4935096;28;20045;-86
2023/04/10 18:37:59;;;;;;;5.78;4.72;;;11.40;99.90;;;;;;4976639;28;20085;-86
2023/04/10 18:40:26;;;;;;;5.05;4.20;;;11.30;99.90;;;;;;4974549;28;20605;-87
2023/04/10 18:42:52;;;;;;;8.45;5.32;;;11.40;99.90;;;;;;4995466;28;20048;-87
2023/04/10 18:45:19;;;;;;;8.15;5.13;;;11.70;99.90;;;;;;4986369;28;20030;-87
2023/04/10 18:47:45;;;;;;;7.25;5.80;;;10.90;99.90;;;;;;4983400;28;20494;-87
2023/04/10 18:50:10;;;;;;;7.22;5.13;;;11.00;99.90;;;;;;4986880;28;20037;-87
2023/04/10 18:52:36;;;;;;;6.57;5.47;;;10.90;99.90;;;;;;4988465;28;20038;-88
2023/04/10 18:55:33;;;;;;;9.63;6.00;;;12.30;99.90;;;;;;5012828;28;20033;-86
2023/04/10 18:58:08;;;;;;;7.30;5.22;;;11.40;99.90;;;;;;5009197;28;20034;-87
2023/04/10 19:00:37;;;;;;;8.52;5.20;;;10.20;99.90;;;;;;5013358;28;20025;-87
2023/04/10 19:03:16;;;;;;;11.55;5.40;;;12.00;99.90;;;;;;5009612;28;20416;-87
2023/04/10 19:05:42;;;;;;;7.35;4.55;;;11.60;99.90;;;;;;5005356;28;20559;-89
2023/04/10 19:08:15;;;;;;;8.43;5.90;;;10.80;99.90;;;;;;5010270;28;20140;-87
2023/04/10 19:10:46;;;;;;;26.85;14.38;;;11.20;99.90;;;;;;5027329;28;20038;-89
2023/04/10 19:13:32;;;;;;;13.38;7.72;;;11.10;99.90;;;;;;5007625;28;20041;-88
2023/04/10 19:16:32;;;;;;;10.43;4.75;;;11.10;99.90;;;;;;5010644;28;20038;-88
2023/04/10 19:19:04;;;;;;;8.68;4.28;;;10.10;99.90;;;;;;5007183;28;20052;-88
2023/04/10 19:21:46;;;;;;;7.57;4.93;;;11.10;99.90;;;;;;5007085;28;20085;-90
2023/04/10 19:24:12;;;;;;;8.00;5.10;;;10.70;99.90;;;;;;5007182;28;20040;-89
2023/04/10 19:26:38;;;;;;;11.60;5.03;;;11.60;99.90;;;;;;5012545;28;20026;-89
2023/04/10 19:29:03;;;;;;;6.72;4.82;;;11.10;99.90;;;;;;5016462;28;20052;-88
2023/04/10 19:31:29;;;;;;;6.22;4.93;;;9.90;99.90;;;;;;4990497;28;20393;-89
2023/04/10 19:34:12;;;;;;;;;;;;;;;;;;;;;
2023/04/10 19:37:04;;;;;;;6.97;3.92;;;9.50;99.90;;;;;;5007797;28;20033;-91
2023/04/10 19:39:32;;;;;;;3.13;2.58;;;11.60;99.90;;;;;;5005556;28;20038;-93
2023/04/10 19:42:02;;;;;;;6.53;3.00;;;11.20;99.90;;;;;;5023933;28;20464;-95
2023/04/10 19:44:36;;;;;;;7.70;3.90;;;11.10;99.90;;;;;;5015471;28;19987;-95
2023/04/10 19:47:05;;;;;;;7.55;4.32;;;10.20;99.90;;;;;;5005343;28;20506;-93
2023/04/10 19:49:38;;;;;;;10.27;4.32;;;10.80;99.90;;;;;;5010121;28;20114;-91
2023/04/10 19:52:04;;;;;;;5.00;3.15;;;11.10;99.90;;;;;;5001115;28;20085;-90
2023/04/10 19:54:30;;;;;;;6.85;3.42;;;9.90;99.90;;;;;;5022492;28;20096;-92
2023/04/10 19:57:09;;;;;;;5.43;3.58;;;10.10;99.90;;;;;;4996393;28;20041;-91
2023/04/10 19:59:44;;;;;;;6.60;4.28;;;10.00;99.90;;;;;;5001254;28;20108;-89
2023/04/10 20:02:10;;;;;;;7.28;4.18;;;10.60;99.90;;;;;;5018554;28;20728;-89
2023/04/10 20:04:39;;;;;;;6.28;3.92;;;10.40;99.90;;;;;;4996912;28;20045;-88
2023/04/10 20:07:05;;;;;;;6.43;3.22;;;9.90;99.90;;;;;;5021859;28;20535;-89
2023/04/10 20:09:39;;;;;;;4.63;3.42;;;9.50;99.90;;;;;;5021340;28;20045;-89
2023/04/10 20:12:05;;;;;;;4.07;3.40;;;10.70;99.90;;;;;;5001821;28;20047;-89
2023/04/10 20:14:37;;;;;;;6.28;3.33;;;9.80;99.90;;;;;;5006357;28;20045;-89
2023/04/10 20:17:07;;;;;;;6.95;3.70;;;9.90;99.90;;;;;;5005958;28;20489;-89
2023/04/10 20:19:33;;;;;;;6.68;3.53;;;9.80;99.90;;;;;;5002682;28;20085;-89
2023/04/10 20:21:59;;;;;;;9.05;5.13;;;10.50;99.90;;;;;;4999488;28;20115;-90
2023/04/10 20:24:27;;;;;;;4.75;2.85;;;10.70;99.90;;;;;;5000277;28;20512;-89
2023/04/10 20:26:56;;;;;;;5.47;2.47;;;10.50;99.90;;;;;;5001754;28;20099;-89
2023/04/10 20:29:22;;;;;;;5.18;2.88;;;9.80;99.90;;;;;;4998616;28;20036;-89
2023/04/10 20:31:47;;;;;;;6.10;2.60;;;10.20;99.90;;;;;;5011699;28;20110;-89
2023/04/10 20:34:45;;;;;;;5.38;2.65;;;9.90;99.90;;;;;;5003240;28;20026;-90
2023/04/10 20:37:13;;;;;;;6.30;2.50;;;9.80;99.90;;;;;;5005477;28;20040;-90
2023/04/10 20:39:42;;;;;;;7.13;2.55;;;8.90;99.90;;;;;;4998325;28;20512;-91
2023/04/10 20:42:07;;;;;;;6.90;2.00;;;9.10;99.90;;;;;;5002886;28;20025;-91
2023/04/10 20:44:56;;;;;;;4.32;2.20;;;10.70;99.90;;;;;;5009263;28;20495;-90
2023/04/10 20:47:24;;;;;;;3.40;2.30;;;10.80;99.90;;;;;;5001860;28;20030;-91
2023/04/10 20:49:53;;;;;;;5.18;2.45;;;10.70;99.90;;;;;;5002349;28;20030;-89
2023/04/10 20:52:21;;;;;;;3.50;2.65;;;9.60;99.90;;;;;;5006331;28;20030;-90
2023/04/10 20:54:52;;;;;;;4.57;2.50;;;10.40;99.90;;;;;;5001409;28;20540;-91
2023/04/10 20:57:17;;;;;;;7.00;2.28;;;10.40;99.90;;;;;;5001398;28;20117;-90
2023/04/10 21:00:32;;;;;;;4.45;2.50;;;10.60;99.90;;;;;;5017579;28;20116;-89
2023/04/10 21:03:26;;;;;;;3.17;1.70;;;8.90;99.90;;;;;;5006188;28;20540;-89
2023/04/10 21:05:51;;;;;;;6.50;2.45;;;11.00;99.90;;;;;;5007652;28;20025;-90
2023/04/10 21:09:06;;;;;;;4.72;2.63;;;10.60;99.90;;;;;;5006882;28;20014;-91
2023/04/10 21:11:31;;;;;;;4.20;1.98;;;9.00;99.90;;;;;;5008409;28;20515;-91
2023/04/10 21:14:00;;;;;;;3.85;2.13;;;9.90;99.90;;;;;;5012352;28;20026;-91
2023/04/10 21:16:25;;;;;;;4.43;2.30;;;10.30;99.90;;;;;;5007675;28;20022;-92
2023/04/10 21:19:29;;;;;;;4.80;2.28;;;9.20;99.90;;;;;;5011340;28;20640;-90
2023/04/10 21:21:56;;;;;;;4.80;2.28;;;9.30;99.90;;;;;;5008540;28;20635;-92
2023/04/10 21:24:44;;;;;;;5.22;1.63;;;10.20;99.90;;;;;;5007580;28;20037;-92
2023/04/10 21:27:13;;;;;;;3.95;1.90;;;9.10;99.90;;;;;;5006362;28;20033;-92
2023/04/10 21:30:07;;;;;;;3.17;1.55;;;9.20;99.90;;;;;;5003445;28;20010;-93
2023/04/10 21:32:33;;;;;;;5.55;1.80;;;8.90;99.90;;;;;;5003061;28;20052;-93
2023/04/10 21:35:21;;;;;;;;;;;;;;;;;;;;;
2023/04/10 21:37:47;;;;;;;5.38;1.75;;;9.10;99.90;;;;;;5005113;28;20545;-90
2023/04/10 21:40:33;;;;;;;2.17;1.50;;;9.10;99.90;;;;;;5001796;28;20022;-89
2023/04/10 21:43:00;;;;;;;6.13;1.90;;;9.60;99.90;;;;;;5001469;28;20400;-91
2023/04/10 21:45:57;;;;;;;2.15;1.30;;;9.00;99.90;;;;;;5006569;28;20232;-91
2023/04/10 21:48:55;;;;;;;3.60;1.40;;;9.00;99.90;;;;;;5005276;28;20314;-90
2023/04/10 21:51:26;;;;;;;4.95;1.75;;;9.30;99.90;;;;;;5008040;28;20065;-91
2023/04/10 21:54:15;;;;;;;4.70;1.60;;;9.00;99.90;;;;;;5007258;28;20424;-91
2023/04/10 21:56:41;;;;;;;5.93;1.45;;;9.00;99.90;;;;;;5002583;28;20033;-90